Time;durP1;ratioP1;P1;durP2;ratioP2;P2;SDS_P1;SDS_P2;PMS_P1;PMS_P2;Temp;Humidity;BMP_temperature;BMP_pressure;BME280_temperature;BME280_humidity;BME280_pressure;Samples;Min_cycle;Max_cycle;Signal;HPM_P1;HPM_P2
2020/12/24 00:01:02;;;;;;;7.47;3.70;;;;;;;9.54;100.00;95920.09;4993495;28;20229;-73
2020/12/24 00:03:27;;;;;;;5.43;3.70;;;;;;;9.60;100.00;95922.03;4994593;28;20226;-73
2020/12/24 00:05:53;;;;;;;4.57;3.10;;;;;;;9.59;100.00;95914.31;4994488;28;20288;-73
2020/12/24 00:08:21;;;;;;;6.43;3.33;;;;;;;9.63;100.00;95912.97;4993649;28;20207;-73
2020/12/24 00:10:47;;;;;;;4.63;2.72;;;;;;;9.63;100.00;95891.91;4992830;28;20245;-73
2020/12/24 00:13:13;;;;;;;3.47;2.40;;;;;;;9.65;100.00;95890.75;4992262;28;20784;-73
2020/12/24 00:15:39;;;;;;;4.57;2.20;;;;;;;9.61;100.00;95878.09;4992319;28;20217;-73
2020/12/24 00:18:05;;;;;;;3.50;2.10;;;;;;;9.54;100.00;95883.28;4991808;28;20857;-73
2020/12/24 00:20:31;;;;;;;2.67;1.83;;;;;;;9.52;100.00;95889.72;4997363;28;20206;-73
2020/12/24 00:22:57;;;;;;;2.10;1.33;;;;;;;9.57;100.00;95876.84;4997936;28;20258;-73
2020/12/24 00:25:23;;;;;;;5.90;1.70;;;;;;;9.47;100.00;95884.16;4997635;28;20201;-73
2020/12/24 00:27:49;;;;;;;2.10;1.40;;;;;;;9.42;100.00;95894.41;4999462;28;20203;-74
2020/12/24 00:30:15;;;;;;;5.73;1.40;;;;;;;9.42;100.00;95889.97;4999879;28;20973;-73
2020/12/24 00:32:42;;;;;;;1.87;1.20;;;;;;;9.43;100.00;95898.66;4999789;28;20226;-73
2020/12/24 00:35:08;;;;;;;4.47;1.03;;;;;;;9.37;100.00;95899.41;4998705;28;20194;-73
2020/12/24 00:37:34;;;;;;;2.60;1.03;;;;;;;9.31;100.00;95908.78;4997269;28;20297;-73
2020/12/24 00:40:00;;;;;;;1.47;1.00;;;;;;;9.33;100.00;95896.31;4997058;28;20215;-73
2020/12/24 00:42:26;;;;;;;2.63;1.00;;;;;;;9.42;100.00;95895.22;4998933;28;20227;-74
2020/12/24 00:44:52;;;;;;;1.57;1.10;;;;;;;9.41;100.00;95890.16;4995967;28;20253;-74
2020/12/24 00:47:18;;;;;;;1.60;1.00;;;;;;;9.42;100.00;95889.13;4995616;28;20210;-74
2020/12/24 00:49:45;;;;;;;1.30;0.80;;;;;;;9.42;100.00;95874.19;4998460;28;20241;-74
2020/12/24 00:52:11;;;;;;;4.03;1.00;;;;;;;9.31;100.00;95868.56;4999786;28;20222;-74
2020/12/24 00:54:37;;;;;;;1.53;0.83;;;;;;;9.24;100.00;95859.72;4998500;28;20222;-74
2020/12/24 00:57:03;;;;;;;1.30;0.98;;;;;;;9.30;100.00;95865.09;4998828;28;20202;-73
2020/12/24 00:59:28;;;;;;;1.50;1.10;;;;;;;9.34;100.00;95852.41;4998758;28;20273;-74
2020/12/24 01:01:54;;;;;;;3.10;1.07;;;;;;;9.37;100.00;95867.84;4999703;28;20257;-74
2020/12/24 01:04:20;;;;;;;2.97;0.83;;;;;;;9.42;100.00;95870.72;4997722;28;20226;-74
2020/12/24 01:06:47;;;;;;;2.30;0.80;;;;;;;9.38;100.00;95880.81;4998327;28;20233;-74
2020/12/24 01:09:13;;;;;;;1.30;0.90;;;;;;;9.48;100.00;95883.16;4997376;28;20273;-74
2020/12/24 01:11:39;;;;;;;0.98;0.80;;;;;;;9.38;100.00;95879.97;4998352;28;20234;-74
2020/12/24 01:14:05;;;;;;;2.67;0.80;;;;;;;9.46;100.00;95885.19;4998743;28;20698;-74
2020/12/24 01:16:31;;;;;;;1.73;0.70;;;;;;;9.47;100.00;95877.09;4998490;28;20293;-74
2020/12/24 01:18:58;;;;;;;1.33;0.70;;;;;;;9.42;100.00;95881.25;4999125;28;20206;-74
2020/12/24 01:21:23;;;;;;;1.30;0.80;;;;;;;9.42;100.00;95879.47;4998666;28;20222;-74
2020/12/24 01:23:50;;;;;;;1.73;0.80;;;;;;;9.42;100.00;95874.19;4999259;28;20203;-74
2020/12/24 01:26:16;;;;;;;1.37;0.70;;;;;;;9.30;100.00;95865.09;4998417;28;20199;-74
2020/12/24 01:28:42;;;;;;;1.43;0.90;;;;;;;9.34;100.00;95876.06;4999320;28;20210;-74
2020/12/24 01:31:08;;;;;;;1.53;1.10;;;;;;;9.41;100.00;95875.19;4999506;28;20222;-74
2020/12/24 01:33:34;;;;;;;1.50;0.80;;;;;;;9.47;100.00;95871.00;5000002;28;20222;-74
2020/12/24 01:36:00;;;;;;;1.47;0.67;;;;;;;9.39;100.00;95878.97;4998430;28;20392;-74
2020/12/24 01:38:26;;;;;;;2.03;0.80;;;;;;;9.27;100.00;95865.44;4999678;28;20209;-74
2020/12/24 01:40:58;;;;;;;2.47;0.77;;;;;;;9.34;100.00;95861.13;4999074;28;20210;-74
2020/12/24 01:43:24;;;;;;;1.37;0.83;;;;;;;9.41;100.00;95851.53;4999357;28;20729;-74
2020/12/24 01:45:52;;;;;;;2.50;0.97;;;;;;;9.49;100.00;95848.00;4998092;28;21112;-74
2020/12/24 01:48:18;;;;;;;1.27;1.00;;;;;;;9.38;100.00;95851.06;4998125;28;20658;-74
2020/12/24 01:50:44;;;;;;;2.53;0.93;;;;;;;9.47;100.00;95863.13;4998527;28;20202;-74
2020/12/24 01:53:18;;;;;;;2.13;1.00;;;;;;;9.39;100.00;95860.59;4999073;28;20253;-74
2020/12/24 01:55:44;;;;;;;1.63;1.00;;;;;;;9.49;100.00;95875.09;4998665;28;20586;-74
2020/12/24 01:58:12;;;;;;;3.60;1.17;;;;;;;9.45;100.00;95876.47;4998936;28;20210;-74
2020/12/24 02:00:38;;;;;;;5.67;1.07;;;;;;;9.33;100.00;95875.28;4997239;28;20935;-74
2020/12/24 02:03:04;;;;;;;2.93;1.10;;;;;;;9.36;100.00;95880.16;4999570;28;20203;-74
2020/12/24 02:05:30;;;;;;;1.40;1.07;;;;;;;9.37;100.00;95865.22;4998241;28;20298;-74
2020/12/24 02:07:56;;;;;;;2.03;1.30;;;;;;;9.39;100.00;95863.22;4999107;28;20681;-73
2020/12/24 02:10:23;;;;;;;2.10;1.20;;;;;;;9.39;100.00;95856.13;4998909;28;20198;-74
2020/12/24 02:12:49;;;;;;;1.70;1.17;;;;;;;9.36;100.00;95843.34;4996977;28;20646;-73
2020/12/24 02:15:16;;;;;;;1.37;1.10;;;;;;;9.43;100.00;95859.22;4997912;28;20297;-73
2020/12/24 02:17:42;;;;;;;2.37;1.10;;;;;;;9.51;100.00;95861.75;4998507;28;20222;-73
2020/12/24 02:20:08;;;;;;;2.67;1.10;;;;;;;9.39;100.00;95850.88;4998441;28;20205;-74
2020/12/24 02:22:35;;;;;;;3.47;1.20;;;;;;;9.34;100.00;95855.88;4998484;28;20223;-73
2020/12/24 02:25:01;;;;;;;1.23;0.80;;;;;;;9.27;100.00;95854.13;4997752;28;20199;-74
2020/12/24 02:27:27;;;;;;;2.33;0.90;;;;;;;9.30;100.00;95851.94;4998407;28;20670;-74
2020/12/24 02:29:53;;;;;;;0.90;0.70;;;;;;;9.34;100.00;95852.41;4998746;28;20213;-73
2020/12/24 02:32:18;;;;;;;2.67;0.97;;;;;;;9.27;100.00;95843.63;4998191;28;20223;-74
2020/12/24 02:34:44;;;;;;;0.80;0.70;;;;;;;9.32;100.00;95838.63;4998869;28;20234;-73
2020/12/24 02:37:12;;;;;;;1.83;0.93;;;;;;;9.26;100.00;95840.16;4996665;28;20216;-73
2020/12/24 02:39:39;;;;;;;1.50;0.90;;;;;;;9.28;100.00;95850.50;4997597;28;20217;-73
2020/12/24 02:42:05;;;;;;;2.03;1.20;;;;;;;9.11;100.00;95849.00;4997444;28;20230;-73
2020/12/24 02:44:31;;;;;;;3.40;0.90;;;;;;;8.95;100.00;95843.06;4998452;28;20207;-73
2020/12/24 02:46:57;;;;;;;1.53;1.00;;;;;;;9.13;100.00;95852.28;4997407;28;20703;-73
2020/12/24 02:49:23;;;;;;;2.10;1.10;;;;;;;8.98;100.00;95842.72;4996321;28;20203;-73
2020/12/24 02:51:48;;;;;;;0.80;0.80;;;;;;;8.77;100.00;95864.38;4997600;28;20222;-73
2020/12/24 02:54:14;;;;;;;1.00;0.90;;;;;;;8.73;100.00;95871.00;4997860;28;20277;-73
2020/12/24 02:56:41;;;;;;;1.20;0.60;;;;;;;8.70;100.00;95870.50;4997523;28;20212;-73
2020/12/24 02:59:07;;;;;;;0.83;0.60;;;;;;;8.64;100.00;95861.53;4997868;28;20202;-73
2020/12/24 03:01:33;;;;;;;0.90;0.50;;;;;;;8.52;100.00;95873.41;4997765;28;20281;-73
2020/12/24 03:03:59;;;;;;;1.60;0.50;;;;;;;8.52;100.00;95881.28;4997985;28;20413;-73
2020/12/24 03:06:25;;;;;;;0.40;0.30;;;;;;;8.43;100.00;95871.00;4997451;28;20206;-73
2020/12/24 03:08:51;;;;;;;0.63;0.30;;;;;;;8.31;100.00;95876.81;4997546;28;20809;-73
2020/12/24 03:11:17;;;;;;;2.20;0.40;;;;;;;8.25;100.00;95880.09;4997254;28;20223;-73
2020/12/24 03:13:43;;;;;;;0.50;0.40;;;;;;;8.22;100.00;95876.06;4998674;28;20234;-73
2020/12/24 03:16:09;;;;;;;0.40;0.40;;;;;;;8.20;100.00;95887.72;4997132;28;20221;-73
2020/12/24 03:18:35;;;;;;;5.73;0.50;;;;;;;8.14;100.00;95888.38;4997282;28;20581;-73
2020/12/24 03:21:01;;;;;;;0.93;0.50;;;;;;;7.93;100.00;95903.84;4998290;28;20697;-73
2020/12/24 03:23:27;;;;;;;1.03;0.30;;;;;;;7.83;100.00;95903.22;4997410;28;20203;-73
2020/12/24 03:25:53;;;;;;;0.50;0.40;;;;;;;7.72;100.00;95914.06;4997268;28;20202;-73
2020/12/24 03:28:19;;;;;;;1.20;0.50;;;;;;;7.59;100.00;95913.75;4997376;28;20199;-73
2020/12/24 03:30:46;;;;;;;2.13;0.60;;;;;;;7.52;100.00;95918.03;4995845;28;20213;-73
2020/12/24 03:33:12;;;;;;;2.90;0.70;;;;;;;7.49;100.00;95914.94;4997453;28;20257;-73
2020/12/24 03:35:38;;;;;;;3.80;0.70;;;;;;;7.41;100.00;95918.38;4996664;28;20206;-72
2020/12/24 03:38:04;;;;;;;1.90;0.70;;;;;;;7.36;100.00;95920.66;4997596;28;20203;-72
2020/12/24 03:40:29;;;;;;;1.07;0.63;;;;;;;7.24;100.00;95923.78;4997138;28;20207;-73
2020/12/24 03:42:55;;;;;;;1.37;0.50;;;;;;;7.28;100.00;95918.06;4997316;28;20345;-72
2020/12/24 03:45:21;;;;;;;1.77;0.60;;;;;;;7.23;100.00;95918.72;4996818;28;21339;-72
2020/12/24 03:47:48;;;;;;;1.27;0.50;;;;;;;7.24;100.00;95922.97;4997644;28;20207;-72
2020/12/24 03:50:14;;;;;;;1.57;0.80;;;;;;;7.09;100.00;95924.59;4997017;28;20256;-72
2020/12/24 03:52:40;;;;;;;1.37;0.50;;;;;;;7.10;100.00;95900.03;4997253;28;20234;-72
2020/12/24 03:55:06;;;;;;;2.63;0.80;;;;;;;7.09;100.00;95917.56;4996009;28;20692;-72
2020/12/24 03:57:32;;;;;;;2.20;0.60;;;;;;;7.05;100.00;95913.66;4997359;28;20670;-72
2020/12/24 03:59:58;;;;;;;2.20;0.50;;;;;;;7.12;100.00;95903.34;4997105;28;20202;-72
2020/12/24 04:02:24;;;;;;;2.10;0.50;;;;;;;7.19;100.00;95904.31;4997214;28;20322;-72
2020/12/24 04:04:51;;;;;;;2.40;1.03;;;;;;;7.14;100.00;95902.19;4996922;28;20206;-72
2020/12/24 04:07:19;;;;;;;0.37;0.30;;;;;;;7.10;100.00;95897.44;4996690;28;20268;-72
2020/12/24 04:09:44;;;;;;;2.23;0.43;;;;;;;7.04;100.00;95895.44;4996920;28;20206;-72
2020/12/24 04:12:10;;;;;;;0.77;0.40;;;;;;;7.14;100.00;95902.19;4997082;28;20229;-72
2020/12/24 04:14:37;;;;;;;2.97;0.60;;;;;;;7.16;100.00;95900.22;4996909;28;20222;-72
2020/12/24 04:17:03;;;;;;;1.80;0.30;;;;;;;7.26;100.00;95902.69;4996701;28;20202;-72
2020/12/24 04:19:29;;;;;;;1.40;0.40;;;;;;;7.20;100.00;95895.47;4996829;28;20222;-71
2020/12/24 04:21:56;;;;;;;1.10;0.50;;;;;;;7.17;100.00;95895.81;4996664;28;20226;-72
2020/12/24 04:24:21;;;;;;;1.60;0.40;;;;;;;7.23;100.00;95900.38;4997094;28;20194;-72
2020/12/24 04:26:47;;;;;;;0.77;0.50;;;;;;;7.26;100.00;95888.56;4996663;28;20202;-72
2020/12/24 04:29:13;;;;;;;1.33;0.60;;;;;;;7.27;100.00;95897.25;4996254;28;20268;-72
2020/12/24 04:31:43;;;;;;;5.83;0.60;;;;;;;7.18;100.00;95885.16;4996996;28;20226;-72
2020/12/24 04:34:09;;;;;;;0.93;0.43;;;;;;;7.19;100.00;95867.63;4997406;28;20225;-72
2020/12/24 04:36:35;;;;;;;1.03;0.40;;;;;;;7.20;100.00;95880.56;4995355;28;20803;-72
2020/12/24 04:39:03;;;;;;;0.40;0.40;;;;;;;7.17;100.00;95873.03;4997353;28;20199;-72
2020/12/24 04:41:30;;;;;;;1.73;0.50;;;;;;;7.19;100.00;95883.34;4996979;28;20280;-72
2020/12/24 04:43:58;;;;;;;2.27;0.50;;;;;;;7.11;100.00;95881.53;4997194;28;20823;-72
2020/12/24 04:46:28;;;;;;;2.73;0.30;;;;;;;7.13;100.00;95855.16;4995715;28;20268;-72
2020/12/24 04:48:56;;;;;;;0.30;0.30;;;;;;;7.14;100.00;95860.28;4996883;28;20737;-72
2020/12/24 04:51:23;;;;;;;0.93;0.50;;;;;;;7.11;100.00;95865.00;4996408;28;20226;-72
2020/12/24 04:53:49;;;;;;;2.93;0.47;;;;;;;7.11;100.00;95872.88;4996885;28;20233;-72
2020/12/24 04:56:15;;;;;;;1.47;0.50;;;;;;;7.17;100.00;95888.75;4996062;28;20199;-72
2020/12/24 04:58:42;;;;;;;0.83;0.40;;;;;;;7.07;100.00;95888.09;4996946;28;20281;-72
2020/12/24 05:01:13;;;;;;;1.70;0.60;;;;;;;7.03;100.00;95878.13;4996189;28;20313;-72
2020/12/24 05:03:39;;;;;;;0.40;0.40;;;;;;;7.03;100.00;95867.66;4996957;28;20198;-72
2020/12/24 05:06:05;;;;;;;3.40;1.40;;;;;;;7.01;100.00;95859.13;4998643;28;21015;-72
2020/12/24 05:08:31;;;;;;;2.93;1.40;;;;;;;7.12;100.00;95840.47;4999807;28;20241;-72
2020/12/24 05:11:05;;;;;;;6.83;2.40;;;;;;;7.17;100.00;95832.91;5000082;28;20206;-72
2020/12/24 05:13:31;;;;;;;3.77;0.93;;;;;;;7.08;100.00;95829.47;4999996;28;20226;-72
2020/12/24 05:16:12;;;;;;;2.67;0.90;;;;;;;7.21;100.00;95819.31;4999689;28;20211;-72
2020/12/24 05:18:38;;;;;;;1.53;0.60;;;;;;;7.27;100.00;95802.94;4999553;28;20206;-72
2020/12/24 05:21:04;;;;;;;0.83;0.30;;;;;;;7.30;100.00;95790.28;4999803;28;21267;-72
2020/12/24 05:23:30;;;;;;;1.57;0.60;;;;;;;7.21;100.00;95800.97;4999949;28;20210;-72
2020/12/24 05:25:56;;;;;;;1.43;0.70;;;;;;;7.10;100.00;95816.22;4998874;28;20214;-72
2020/12/24 05:28:23;;;;;;;1.57;0.60;;;;;;;7.04;100.00;95825.56;4999799;28;20213;-72
2020/12/24 05:30:50;;;;;;;0.47;0.43;;;;;;;7.07;100.00;95827.03;4999316;28;20206;-72
2020/12/24 05:33:27;;;;;;;1.57;0.80;;;;;;;7.04;100.00;95827.34;4998881;28;20235;-72
2020/12/24 05:35:53;;;;;;;2.00;0.80;;;;;;;7.06;100.00;95830.63;4998610;28;20210;-72
2020/12/24 05:38:31;;;;;;;0.70;0.70;;;;;;;7.03;100.00;95834.41;5000621;28;20209;-72
2020/12/24 05:40:57;;;;;;;2.83;0.70;;;;;;;7.10;100.00;95831.94;5000012;28;20302;-72
2020/12/24 05:43:23;;;;;;;0.60;0.60;;;;;;;7.12;100.00;95833.41;4998588;28;20784;-72
2020/12/24 05:46:03;;;;;;;1.47;0.60;;;;;;;7.11;100.00;95837.00;4999664;28;20206;-72
2020/12/24 05:48:33;;;;;;;2.03;0.70;;;;;;;7.01;100.00;95832.94;4999591;28;20210;-72
2020/12/24 05:50:59;;;;;;;1.73;0.80;;;;;;;6.94;100.00;95839.81;4999496;28;20222;-71
2020/12/24 05:53:25;;;;;;;0.40;0.40;;;;;;;6.96;100.00;95846.53;4999076;28;20898;-71
2020/12/24 05:55:51;;;;;;;0.93;0.50;;;;;;;6.90;100.00;95841.13;4997831;28;20210;-71
2020/12/24 05:58:18;;;;;;;2.80;0.50;;;;;;;6.87;100.00;95847.50;4998785;28;20629;-71
2020/12/24 06:00:45;;;;;;;1.43;0.60;;;;;;;6.86;100.00;95850.28;4999200;28;20221;-71
2020/12/24 06:03:14;;;;;;;1.40;0.50;;;;;;;6.94;100.00;95850.28;4998651;28;20203;-71
2020/12/24 06:05:56;;;;;;;0.93;0.40;;;;;;;6.84;100.00;95854.88;4998415;28;20309;-71
2020/12/24 06:08:24;;;;;;;1.23;0.40;;;;;;;6.69;100.00;95853.88;4997463;28;20332;-71
2020/12/24 06:11:01;;;;;;;2.47;0.50;;;;;;;6.76;100.00;95865.34;4998890;28;20210;-71
2020/12/24 06:13:36;;;;;;;1.20;0.50;;;;;;;6.80;100.00;95850.94;4998279;28;20257;-71
2020/12/24 06:16:04;;;;;;;2.23;0.93;;;;;;;6.69;100.00;95844.25;4997563;28;20210;-71
2020/12/24 06:18:34;;;;;;;3.13;0.70;;;;;;;6.68;100.00;95852.22;4999089;28;20230;-71
2020/12/24 06:21:01;;;;;;;1.57;0.50;;;;;;;6.60;100.00;95849.63;4998543;28;20237;-71
2020/12/24 06:23:33;;;;;;;1.33;0.70;;;;;;;6.65;100.00;95841.28;4998872;28;20261;-71
2020/12/24 06:26:03;;;;;;;2.30;0.87;;;;;;;6.59;100.00;95844.53;4998185;28;21374;-71
2020/12/24 06:28:33;;;;;;;4.50;1.40;;;;;;;6.54;100.00;95846.81;4998027;28;20238;-71
2020/12/24 06:31:00;;;;;;;4.20;1.80;;;;;;;6.53;100.00;95842.56;4998840;28;20226;-71
2020/12/24 06:33:27;;;;;;;1.70;0.80;;;;;;;6.51;100.00;95831.47;4998310;28;20745;-71
2020/12/24 06:35:54;;;;;;;2.07;0.80;;;;;;;6.58;100.00;95835.88;4997625;28;20245;-71
2020/12/24 06:38:45;;;;;;;1.80;0.90;;;;;;;6.63;100.00;95841.44;4999029;28;20206;-71
2020/12/24 06:41:27;;;;;;;1.43;1.00;;;;;;;6.55;100.00;95832.75;4998146;28;20300;-72
2020/12/24 06:43:53;;;;;;;1.37;0.60;;;;;;;6.45;100.00;95830.28;4997833;28;20219;-72
2020/12/24 06:46:21;;;;;;;3.20;0.80;;;;;;;6.39;100.00;95825.72;4997314;28;20202;-72
2020/12/24 06:49:01;;;;;;;1.37;0.60;;;;;;;6.41;100.00;95813.28;4999595;28;20199;-72
2020/12/24 06:51:46;;;;;;;3.30;0.80;;;;;;;6.33;100.00;95812.47;4997846;28;20226;-72
2020/12/24 06:54:22;;;;;;;1.60;0.60;;;;;;;6.30;100.00;95821.44;4997659;28;20828;-72
2020/12/24 06:56:48;;;;;;;3.47;0.50;;;;;;;6.26;100.00;95824.53;4997731;28;20206;-72
2020/12/24 06:59:22;;;;;;;0.87;0.57;;;;;;;6.19;100.00;95819.13;4998219;28;20689;-72
2020/12/24 07:02:02;;;;;;;2.73;0.87;;;;;;;6.13;100.00;95817.16;4997862;28;20222;-72
2020/12/24 07:04:41;;;;;;;9.33;2.20;;;;;;;6.11;100.00;95806.03;4998258;28;20249;-72
2020/12/24 07:07:08;;;;;;;6.13;1.60;;;;;;;6.07;100.00;95809.97;4995789;28;21099;-72
2020/12/24 07:09:44;;;;;;;5.77;1.60;;;;;;;6.04;100.00;95801.59;4997226;28;20741;-72
2020/12/24 07:12:31;;;;;;;4.53;1.53;;;;;;;6.00;100.00;95807.34;4997876;28;20221;-72
2020/12/24 07:15:23;;;;;;;3.33;1.07;;;;;;;6.00;100.00;95807.34;4997650;28;20277;-72
2020/12/24 07:17:56;;;;;;;5.47;1.53;;;;;;;5.99;100.00;95803.88;4997769;28;20237;-72
2020/12/24 07:20:24;;;;;;;4.63;1.33;;;;;;;5.99;100.00;95805.69;4997668;28;20206;-72
2020/12/24 07:22:54;;;;;;;4.30;1.10;;;;;;;6.01;100.00;95801.09;4997771;28;20222;-72
2020/12/24 07:25:21;;;;;;;2.00;1.00;;;;;;;5.98;100.00;95804.03;4996661;28;20225;-72
2020/12/24 07:27:52;;;;;;;6.63;1.57;;;;;;;5.93;100.00;95796.69;4997509;28;20238;-72
2020/12/24 07:30:21;;;;;;;3.73;1.17;;;;;;;5.97;100.00;95798.00;4997715;28;20600;-72
2020/12/24 07:33:05;;;;;;;4.47;1.40;;;;;;;5.95;100.00;95791.31;4994683;28;20268;-72
2020/12/24 07:35:32;;;;;;;3.30;1.50;;;;;;;5.93;100.00;95790.63;4994984;28;21311;-71
2020/12/24 07:37:59;;;;;;;6.03;1.20;;;;;;;5.89;100.00;95797.16;4996877;28;20563;-73
2020/12/24 07:40:32;;;;;;;4.20;1.30;;;;;;;5.90;100.00;95791.75;4996107;28;20210;-72
2020/12/24 07:43:08;;;;;;;2.17;1.00;;;;;;;5.86;100.00;95789.66;4997169;28;20605;-73
2020/12/24 07:45:34;;;;;;;3.03;1.27;;;;;;;5.88;100.00;95785.91;4996520;28;20202;-73
2020/12/24 07:48:00;;;;;;;3.23;1.23;;;;;;;5.94;100.00;95784.44;4996436;28;20724;-73
2020/12/24 07:50:31;;;;;;;6.13;1.60;;;;;;;5.93;100.00;95786.25;4996830;28;20203;-72
2020/12/24 07:52:57;;;;;;;7.33;2.20;;;;;;;5.97;100.00;95786.72;4996347;28;20633;-73
2020/12/24 07:55:24;;;;;;;4.60;1.70;;;;;;;5.94;100.00;95784.44;4995681;28;20426;-73
2020/12/24 07:57:50;;;;;;;5.40;2.10;;;;;;;6.02;100.00;95776.59;4996894;28;20207;-73
2020/12/24 08:00:17;;;;;;;2.47;1.30;;;;;;;6.02;100.00;95771.38;4997431;28;20633;-73
2020/12/24 08:02:43;;;;;;;4.80;1.70;;;;;;;6.07;100.00;95768.13;4996967;28;20230;-73
2020/12/24 08:05:09;;;;;;;2.73;1.50;;;;;;;6.09;100.00;95766.13;4996632;28;20287;-73
2020/12/24 08:07:35;;;;;;;2.30;1.10;;;;;;;6.15;100.00;95767.31;4997135;28;20218;-73
2020/12/24 08:10:09;;;;;;;8.70;2.03;;;;;;;6.17;100.00;95763.56;4997401;28;21192;-73
2020/12/24 08:12:36;;;;;;;4.50;1.10;;;;;;;6.22;100.00;95761.28;4996564;28;20242;-72
2020/12/24 08:15:12;;;;;;;2.50;1.20;;;;;;;6.17;100.00;95754.88;4996774;28;20289;-73
2020/12/24 08:17:44;;;;;;;4.03;1.60;;;;;;;6.26;100.00;95754.75;4996944;28;20237;-74
2020/12/24 08:20:13;;;;;;;4.40;1.50;;;;;;;6.28;100.00;95752.75;4997558;28;20206;-73
2020/12/24 08:22:46;;;;;;;3.93;1.80;;;;;;;6.34;100.00;95746.06;4996966;28;20270;-74
2020/12/24 08:25:16;;;;;;;1.67;1.20;;;;;;;6.34;100.00;95746.06;4996323;28;20583;-74
2020/12/24 08:27:44;;;;;;;4.63;2.10;;;;;;;6.39;100.00;95736.75;4996560;28;20210;-73
2020/12/24 08:30:11;;;;;;;1.17;1.07;;;;;;;6.44;100.00;95729.22;4994425;28;20268;-73
2020/12/24 08:32:38;;;;;;;4.03;0.93;;;;;;;6.51;100.00;95719.72;4996379;28;20230;-73
2020/12/24 08:35:11;;;;;;;5.10;1.00;;;;;;;6.62;100.00;95716.78;4994917;28;20237;-72
2020/12/24 08:37:37;;;;;;;2.63;0.83;;;;;;;6.76;100.00;95724.78;4996291;28;20203;-72
2020/12/24 08:40:20;;;;;;;4.83;1.80;;;;;;;6.85;100.00;95709.88;4997937;28;20286;-73
2020/12/24 08:42:47;;;;;;;3.13;1.37;;;;;;;6.84;100.00;95703.81;4999199;28;20227;-73
2020/12/24 08:45:14;;;;;;;5.20;1.00;;;;;;;6.85;100.00;95694.97;4998789;28;20674;-73
2020/12/24 08:47:40;;;;;;;2.43;1.10;;;;;;;6.87;100.00;95689.56;4999475;28;20752;-74
2020/12/24 08:50:06;;;;;;;3.23;1.40;;;;;;;6.95;100.00;95695.59;5000445;28;20198;-73
2020/12/24 08:52:35;;;;;;;3.37;1.50;;;;;;;6.96;100.00;95683.31;4998248;28;20646;-73
2020/12/24 08:55:02;;;;;;;8.10;2.40;;;;;;;7.06;100.00;95683.94;4998064;28;20720;-74
2020/12/24 08:57:28;;;;;;;1.67;1.20;;;;;;;7.10;100.00;95687.84;5000668;28;20207;-74
2020/12/24 08:59:56;;;;;;;2.33;1.10;;;;;;;7.17;100.00;95686.22;5000610;28;20272;-74
2020/12/24 09:02:27;;;;;;;4.20;1.10;;;;;;;7.17;100.00;95686.22;4998768;28;20218;-72
2020/12/24 09:04:54;;;;;;;5.50;1.47;;;;;;;7.20;100.00;95676.19;4998091;28;20218;-73
2020/12/24 09:07:24;;;;;;;3.33;1.20;;;;;;;7.27;100.00;95683.19;4998583;28;20312;-72
2020/12/24 09:10:04;;;;;;;0.80;0.60;;;;;;;7.39;100.00;95684.44;4998920;28;20214;-72
2020/12/24 09:12:30;;;;;;;3.53;1.00;;;;;;;7.56;100.00;95680.78;4997653;28;20226;-72
2020/12/24 09:15:02;;;;;;;4.70;1.03;;;;;;;7.57;100.00;95677.13;4998028;28;20222;-72
2020/12/24 09:17:28;;;;;;;6.40;1.30;;;;;;;7.66;100.00;95675.31;4997598;28;20265;-72
2020/12/24 09:20:04;;;;;;;6.43;1.33;;;;;;;7.71;100.00;95680.84;4998139;28;20214;-73
2020/12/24 09:22:30;;;;;;;4.90;1.53;;;;;;;7.70;100.00;95680.03;4997598;28;20222;-73
2020/12/24 09:24:56;;;;;;;2.13;1.10;;;;;;;7.61;100.00;95667.97;4997375;28;20213;-73
2020/12/24 09:27:22;;;;;;;2.40;0.60;;;;;;;7.53;100.00;95681.09;4997993;28;20587;-72
2020/12/24 09:29:48;;;;;;;1.57;0.80;;;;;;;7.53;100.00;95678.47;4997009;28;20225;-73
2020/12/24 09:32:15;;;;;;;3.87;1.00;;;;;;;7.52;100.00;95671.63;4997491;28;20796;-72
2020/12/24 09:34:41;;;;;;;2.47;0.90;;;;;;;7.49;100.00;95671.13;4997605;28;20222;-73
2020/12/24 09:37:07;;;;;;;2.57;0.90;;;;;;;7.57;100.00;95669.28;4997443;28;20293;-73
2020/12/24 09:39:33;;;;;;;1.57;0.70;;;;;;;7.63;100.00;95670.41;4997409;28;20225;-72
2020/12/24 09:41:59;;;;;;;2.43;0.57;;;;;;;7.61;100.00;95665.34;4997207;28;20226;-73
2020/12/24 09:44:25;;;;;;;2.30;0.67;;;;;;;7.65;100.00;95657.94;4996988;28;20194;-73
2020/12/24 09:46:51;;;;;;;1.43;0.70;;;;;;;7.68;100.00;95660.22;4996183;28;20210;-73
2020/12/24 09:49:18;;;;;;;3.67;0.97;;;;;;;7.77;100.00;95665.22;4997511;28;20206;-73
2020/12/24 09:51:44;;;;;;;1.33;0.50;;;;;;;7.73;100.00;95661.31;4997463;28;20237;-72
2020/12/24 09:54:10;;;;;;;2.97;1.13;;;;;;;7.78;100.00;95661.63;4997204;28;20226;-73
2020/12/24 09:56:36;;;;;;;7.50;1.60;;;;;;;7.93;100.00;95655.44;4995984;28;20217;-73
2020/12/24 09:59:03;;;;;;;4.23;1.30;;;;;;;7.98;100.00;95662.78;4997913;28;20286;-72
2020/12/24 10:01:29;;;;;;;5.30;1.03;;;;;;;8.00;100.00;95668.69;4998044;28;20237;-73
2020/12/24 10:03:59;;;;;;;2.50;0.60;;;;;;;7.97;100.00;95667.22;4996441;28;20749;-71
2020/12/24 10:06:26;;;;;;;1.13;0.70;;;;;;;7.99;100.00;95672.28;4995867;28;20230;-73
2020/12/24 10:08:52;;;;;;;2.27;0.70;;;;;;;7.90;100.00;95675.97;4997433;28;20214;-72
2020/12/24 10:11:20;;;;;;;4.93;0.80;;;;;;;7.90;100.00;95658.44;4996820;28;20226;-73
2020/12/24 10:13:46;;;;;;;2.10;0.90;;;;;;;7.88;100.00;95668.28;4998514;28;20209;-72
2020/12/24 10:16:12;;;;;;;2.20;0.93;;;;;;;7.90;100.00;95654.97;4996346;28;21099;-74
2020/12/24 10:18:38;;;;;;;5.87;1.27;;;;;;;7.90;100.00;95658.44;4998106;28;20207;-72
2020/12/24 10:21:04;;;;;;;1.97;0.93;;;;;;;7.91;100.00;95659.25;4998004;28;20254;-74
2020/12/24 10:23:31;;;;;;;5.53;1.80;;;;;;;7.98;100.00;95657.53;4998407;28;20245;-73
2020/12/24 10:25:57;;;;;;;4.43;1.30;;;;;;;7.99;100.00;95657.38;4997171;28;20206;-73
2020/12/24 10:28:23;;;;;;;2.63;1.30;;;;;;;8.04;100.00;95662.09;4998286;28;20352;-73
2020/12/24 10:30:49;;;;;;;2.63;1.40;;;;;;;8.07;100.00;95665.19;4997781;28;20207;-73
2020/12/24 10:33:15;;;;;;;1.90;0.80;;;;;;;8.03;100.00;95661.28;4997924;28;20207;-74
2020/12/24 10:35:41;;;;;;;3.43;1.27;;;;;;;8.07;100.00;95651.22;4997356;28;20249;-74
2020/12/24 10:38:07;;;;;;;5.43;1.07;;;;;;;8.04;100.00;95646.34;4997789;28;20213;-73
2020/12/24 10:40:35;;;;;;;6.50;1.10;;;;;;;8.04;100.00;95639.31;4997906;28;20216;-73
2020/12/24 10:43:02;;;;;;;3.77;1.00;;;;;;;8.08;100.00;95631.88;4997151;28;20218;-73
2020/12/24 10:45:28;;;;;;;3.97;1.43;;;;;;;8.08;100.00;95631.88;4996798;28;20202;-74
2020/12/24 10:47:54;;;;;;;3.80;1.43;;;;;;;8.10;100.00;95627.28;4997483;28;20640;-74
2020/12/24 10:50:20;;;;;;;5.70;2.00;;;;;;;8.06;100.00;95632.06;4997716;28;21015;-74
2020/12/24 10:52:46;;;;;;;5.90;1.50;;;;;;;8.16;100.00;95623.97;4995518;28;20705;-74
2020/12/24 10:55:12;;;;;;;5.07;2.57;;;;;;;8.16;100.00;95623.97;4995950;28;20230;-74
2020/12/24 10:57:39;;;;;;;3.17;1.20;;;;;;;8.19;100.00;95615.75;4997130;28;20203;-74
2020/12/24 11:00:05;;;;;;;4.17;1.63;;;;;;;8.23;100.00;95611.78;4997843;28;20211;-72
2020/12/24 11:02:31;;;;;;;2.53;0.90;;;;;;;8.20;100.00;95610.34;4996957;28;20300;-73
2020/12/24 11:04:57;;;;;;;4.30;1.57;;;;;;;8.18;100.00;95614.13;4997483;28;20207;-73
2020/12/24 11:07:23;;;;;;;2.10;1.37;;;;;;;8.25;100.00;95604.53;4996955;28;20238;-74
2020/12/24 11:09:49;;;;;;;12.47;4.67;;;;;;;8.34;100.00;95616.59;4998171;28;20217;-73
2020/12/24 11:12:15;;;;;;;3.63;1.83;;;;;;;8.36;100.00;95622.50;4997383;28;20222;-74
2020/12/24 11:14:42;;;;;;;10.50;3.73;;;;;;;8.35;100.00;95619.06;4996872;28;20360;-74
2020/12/24 11:17:08;;;;;;;4.93;1.37;;;;;;;8.43;100.00;95620.81;4996412;28;20213;-74
2020/12/24 11:19:34;;;;;;;6.83;2.70;;;;;;;8.45;100.00;95621.41;4997667;28;20666;-73
2020/12/24 11:22:00;;;;;;;4.80;1.80;;;;;;;8.45;100.00;95616.97;4995511;28;20757;-75
2020/12/24 11:24:26;;;;;;;2.33;1.20;;;;;;;8.46;100.00;95620.44;4997195;28;20531;-73
2020/12/24 11:26:52;;;;;;;4.67;0.90;;;;;;;8.44;99.95;95606.66;4995173;28;20240;-73
2020/12/24 11:29:18;;;;;;;2.57;0.97;;;;;;;8.41;99.83;95612.28;4995927;28;20205;-74
2020/12/24 11:31:44;;;;;;;1.83;0.97;;;;;;;8.40;99.73;95615.88;4996197;28;20392;-74
2020/12/24 11:34:10;;;;;;;6.80;2.00;;;;;;;8.43;100.00;95607.66;4996397;28;20814;-74
2020/12/24 11:36:37;;;;;;;3.63;1.30;;;;;;;8.43;98.13;95607.66;4997054;28;20260;-73